Terminal Aerodrome Forecast
Issued by NWS

Home | Current Version | Previous Version | Text Only | Print | Product List | Glossary On
Versions: 1 2 3 4 5 6 7 8 9 10 11 12
000
FTUS42 KMHX 241700
TAFISO
TAF
KISO 241733Z 2418/2518 VRB04KT P6SM FEW150
     FM250900 00000KT P6SM SCT020 BKN035
     FM251300 17012G19KT P6SM VCSH BKN020
      AMD LTD TO CLD VIS AND WIND=

USA.gov is the U.S. government's official web portal to all federal, state and local government web resources and services.